Sonic Adventure (DX): Overall Rankings

Records: Times | Rings | Scores | Races | Bosses | Freestyle
Leaders: Times | Rings | Scores | Races | Bosses | Freestyle | Overall
Rank Player Percent Points Order Asc Date
1 Sonicspeedruner 98.4% 249 03-30-15
2 Gamepro011 97.5% 391 03-30-15
3 DarkPolarNight 96.3% 586 03-30-15
4 Jawzun 94.0% 975 03-30-15
5 Dashjump 91.8% 1322 03-30-15
6 DarkspinesSonic 90.9% 1476 03-30-15
7 Avento128bits 90.4% 1556 03-30-15
8 ike6252 90.2% 1585 03-30-15
9 F-Man 86.1% 2252 03-30-15
10 HyperSonic7701 85.1% 2407 03-30-15
11 Coolfansonic 84.0% 2593 03-30-15
12 yoshifan 83.6% 2662 03-30-15
13 frankoredstrato 83.2% 2730 03-30-15
14 TheRealShadnic 82.2% 2890 03-30-15
15 francisco 82.1% 2895 03-30-15
16 Marth 81.8% 2949 03-30-15
17 InferSaime 80.5% 3165 03-30-15
18 PfoSonic 80.1% 3225 03-30-15
19 Paragod 79.6% 3307 03-30-15
20 THC98 78.4% 3499 03-30-15
21 Stefan 76.3% 3843 03-30-15
22 RPGnutter 74.0% 4213 03-30-15
23 bertin 74.0% 4224 03-30-15
24 sonicam 71.7% 4592 03-30-15
25 Combo 65.7% 5572 03-30-15
26 SkyLights 64.5% 5757 03-30-15
27 xXMegaManXx 63.6% 5901 03-30-15
28 Diamond 62.8% 6031 03-30-15
29 GerbilSoft 60.4% 6432 03-30-15
30 OmegaDJ 60.3% 6436 03-30-15
31 Auriman1 60.3% 6449 03-30-15
32 magnum12 59.3% 6600 03-30-15
33 Dawid8404 59.2% 6625 03-30-15
34 drminus 59.0% 6658 03-30-15
35 Thorn 57.3% 6935 03-30-15
36 P1 Pause 57.0% 6976 03-30-15
37 mike89 55.8% 7180 03-30-15
38 chainchumper 54.1% 7454 03-30-15
39 Groudon199 53.9% 7483 03-30-15
40 Dave Cramer 53.9% 7486 03-30-15
41 Parax 53.3% 7575 03-30-15
42 Shadow Jacky 52.8% 7662 03-30-15
43 Psymar 47.6% 8508 03-30-15
44 Chao_Fan 45.8% 8798 03-30-15
45 Arch 45.6% 8836 03-30-15
46 mauserman 45.5% 8853 03-30-15
47 Quartz 44.7% 8981 03-30-15
48 teamblackarms 43.7% 9146 03-30-15
49 Psyknux 43.5% 9170 03-30-15
50 James_Bertolli 42.9% 9270 03-30-15
51 NintenDan 42.4% 9359 03-30-15
52 Fr3nZy 41.8% 9446 03-30-15
53 Webber3000 41.8% 9451 03-30-15
54 Turbos 41.7% 9474 03-30-15
55 Ring Rush 41.6% 9481 03-30-15
56 Cream147 41.4% 9523 03-30-15
57 videogamemaster777 41.3% 9536 03-30-15
58 Siavash Tazari 41.1% 9571 03-30-15
59 buddychaos0415 40.6% 9647 03-30-15
60 SadisticMystic 40.0% 9751 03-30-15
61 eggFL 39.1% 9892 03-30-15
62 Redd 38.6% 9965 03-30-15
63 SB737 37.5% 10152 03-30-15
64 supersonicfan 36.3% 10345 03-30-15
65 FuzZerd 35.3% 10509 03-30-15
66 elecmouse101 34.5% 10632 03-30-15
67 supersonic465 34.4% 10654 03-30-15
68 Austinf 33.6% 10783 03-30-15
69 metanightmare22 32.9% 10899 03-30-15
70 Aitamen 32.9% 10901 03-30-15
71 dabestgamer 32.7% 10923 03-30-15
72 MiStEr_ShAoLiN 32.6% 10943 03-30-15
73 Cyan Ryan 32.6% 10949 03-30-15
74 itsPersonnal 31.8% 11068 03-30-15
75 Cybrax 30.9% 11220 03-30-15
76 Andrea Ritsu 30.6% 11273 03-30-15
77 danieldude 30.5% 11288 03-30-15
78 SilvertheAlmighty 30.4% 11297 03-30-15
79 VMU Player Banned 28.8% 11559 03-30-15
80 Omega Rafael Santos 28.2% 11663 03-30-15
81 Staf 28.1% 11670 03-30-15
82 The T 27.9% 11704 03-30-15
83 EngiNerd 27.6% 11754 03-30-15
84 lordmetalsonic 26.9% 11874 03-30-15
85 Hipertails12 26.8% 11896 03-30-15
86 welldooder64 26.2% 11981 03-30-15
87 GreatStar 26.2% 11982 03-30-15
88 Sondow 26.2% 11986 03-30-15
89 The Great Lord Mick 25.9% 12032 03-30-15
90 Mastakirby 25.9% 12038 03-30-15
91 LinksDarkArrows 25.7% 12062 03-30-15
92 Nimrod 25.5% 12103 03-30-15
93 Skylace 24.8% 12215 03-30-15
94 Rolken 23.4% 12447 03-30-15
95 Xia 21.8% 12698 03-30-15
96 Kogen Player Banned 21.7% 12712 03-30-15
97 Spinballwizard 21.6% 12732 03-30-15
98 Don 21.3% 12778 03-30-15
99 Miles9999 21.3% 12787 03-30-15
100 Cutiefox 21.2% 12792 03-30-15
101 f0rever_zer0 21.1% 12816 03-30-15
102 Game_Complete 21.1% 12819 03-30-15
103 andres430 20.4% 12927 03-30-15
104 Cruizer 20.3% 12940 03-30-15
105 iSonicKid2K 20.1% 12974 03-30-15
106 SADXTryHard 19.8% 13033 03-30-15
107 GarnetPrincess 19.4% 13093 03-30-15
108 knuckles_sonic8 18.8% 13188 03-30-15
109 Team_Yoshi 18.3% 13272 03-30-15
110 KinkyCadence 18.0% 13313 03-30-15
111 The Knuckles Chao 17.8% 13350 03-30-15
112 Termon 17.7% 13367 03-30-15
113 FoxBoy 17.6% 13376 03-30-15
114 LittleBigness 17.3% 13428 03-30-15
115 SonicWinDX 17.1% 13472 03-30-15
116 Sonic Singularity 15.5% 13722 03-30-15
117 Pokemonmaster888 15.5% 13728 03-30-15
118 BigAL49 14.5% 13893 03-30-15
119 SilverSonic 14.3% 13922 03-30-15
120 MPit08 14.2% 13935 03-30-15
121 WeegeeZV 14.1% 13957 03-30-15
122 Mo Player Banned 14.0% 13962 03-30-15
123 Cod4Scopes 13.5% 14057 03-30-15
124 HyperSonic64 13.3% 14089 03-30-15
125 booo95 13.2% 14103 03-30-15
126 Chawkk 13.1% 14120 03-30-15
127 paulie9990 12.9% 14150 03-30-15
128 SuperSonic101 12.9% 14151 03-30-15
129 Hunters13 12.8% 14158 03-30-15
130 Maxinfamily 12.6% 14189 03-30-15
131 PsyBorg 12.5% 14218 03-30-15
132 Flying Fox 12.5% 14220 03-30-15
133 Kanimayo_Jp 12.4% 14226 03-30-15
134 BrokenArthritis 12.3% 14241 03-30-15
135 LilZero 12.1% 14272 03-30-15
136 a_moustache 11.8% 14328 03-30-15
137 Therio 11.8% 14333 03-30-15
138 sonicspeed 11.6% 14354 03-30-15
139 douglas 11.5% 14378 03-30-15
140 Matt_TY 11.2% 14430 03-30-15
141 joecoolgames 10.6% 14528 03-30-15
142 Cooljay 10.5% 14532 03-30-15
143 SeaWolf 10.4% 14548 03-30-15
144 Drakodan 10.0% 14619 03-30-15
145 TFEC Headshot 9.9% 14633 03-30-15
146 welshmoose05 9.8% 14649 03-30-15
147 crazy1993 9.6% 14691 03-30-15
148 Mcshuggets 9.5% 14695 03-30-15
149 videogamer1014 9.2% 14742 03-30-15
150 imazor017 9.2% 14754 03-30-15
151 nuckrieg 9.0% 14775 03-30-15
152 SonicAD 9.0% 14782 03-30-15
152 niscool 9.0% 14782 03-30-15
154 SirTobbii 8.9% 14800 03-30-15
155 superjupi 8.7% 14827 03-30-15
155 Shadowthegreat 8.7% 14827 03-30-15
157 SaviourDC 8.4% 14875 03-30-15
158 iarebored 8.4% 14880 03-30-15
159 sonamyfan666 8.3% 14891 03-30-15
160 Werey 8.3% 14903 03-30-15
161 SonicKnuckles 8.2% 14915 03-30-15
162 adf 7.9% 14963 03-30-15
163 ArcticDragon 7.8% 14969 03-30-15
164 Megaman EXE565 7.7% 14990 03-30-15
165 Platformer 7.4% 15045 03-30-15
166 FocusSight64 7.3% 15059 03-30-15
167 wheatrich 7.2% 15074 03-30-15
168 timpkmn89 7.2% 15077 03-30-15
169 Swift Hobo 7.2% 15081 03-30-15
170 Rickyman48 7.0% 15101 03-30-15
171 KitsuneYamaro 6.7% 15148 03-30-15
172 Triseena 6.6% 15168 03-30-15
173 CyberShadow 6.5% 15192 03-30-15
174 slade23 6.4% 15209 03-30-15
175 dShadow 6.4% 15210 03-30-15
176 Starlight Sable 6.4% 15211 03-30-15
177 IsisDazs 6.2% 15240 03-30-15
178 BlankTH 6.0% 15266 03-30-15
179 Monkeh 5.8% 15308 03-30-15
180 Richied 5.7% 15316 03-30-15
181 DaDude 5.6% 15336 03-30-15
182 sonicd5 5.5% 15355 03-30-15
183 Zip 5.4% 15360 03-30-15
184 tal39h 5.1% 15412 03-30-15
184 Kirbymon30 5.1% 15412 03-30-15
186 soniccoloursunleashed 4.8% 15463 03-30-15
187 Drflash55 4.8% 15466 03-30-15
188 Yish 4.6% 15489 03-30-15
189 neaolas 4.6% 15493 03-30-15
190 Bass 4.6% 15494 03-30-15
191 UninspiredUsername 4.5% 15509 03-30-15
192 superiorsonic 4.5% 15510 03-30-15
193 Sonicsuperstar1 4.5% 15511 03-30-15
194 zapp 4.5% 15518 03-30-15
195 gamefreak1292 4.4% 15532 03-30-15
196 SonicU260 4.1% 15581 03-30-15
197 Chaos_Overlord 4.1% 15583 03-30-15
198 ethmar 4.0% 15587 03-30-15
199 TakaRikka 4.0% 15599 03-30-15
200 Valfore 3.9% 15607 03-30-15
201 ShinigamiMachine 3.8% 15631 03-30-15
202 Regano1000 3.7% 15644 03-30-15
203 MK 3.6% 15660 03-30-15
204 Ace747 3.5% 15673 03-30-15
205 Illidan 3.2% 15720 03-30-15
206 Venick409 3.1% 15734 03-30-15
207 Mariobutch 3.1% 15735 03-30-15
208 Brian_pso 3.1% 15744 03-30-15
209 Sithwarrior26 3.0% 15753 03-30-15
210 TheChaosEmeraIds 2.9% 15771 03-30-15
211 ingx24 2.9% 15772 03-30-15
212 SkyBon 2.8% 15783 03-30-15
213 Nickson98 2.8% 15784 03-30-15
214 Fozer 2.7% 15797 03-30-15
215 FSSRandomvids 2.7% 15798 03-30-15
216 sonic29887 2.7% 15802 03-30-15
217 Colomb_30 2.7% 15806 03-30-15
218 TheUltraBlur 2.6% 15822 03-30-15
219 1stKirbyever 2.5% 15834 03-30-15
220 Th4tN1nj4Turtl3 2.3% 15866 03-30-15
221 Cort_pso 2.3% 15868 03-30-15
222 Doom-9 2.3% 15874 03-30-15
223 ieatatsonic 2.2% 15881 03-30-15
224 Mariosonic15 2.2% 15884 03-30-15
225 SuperSonic71087 2.2% 15893 03-30-15
226 MStitomix 2.1% 15900 03-30-15
227 HermitHelmet 2.1% 15906 03-30-15
228 Artie 2.0% 15918 03-30-15
229 Got4n 2.0% 15919 03-30-15
230 Questionguy555 1.9% 15929 03-30-15
230 Jose_15 1.9% 15929 03-30-15
232 djmat 1.8% 15944 03-30-15
233 SuperSonicfan9595 1.7% 15962 03-30-15
233 sonicandamy 1.7% 15962 03-30-15
235 LancexExWx 1.7% 15968 03-30-15
236 son1cgu1tar 1.7% 15972 03-30-15
237 Heroes_Hater 1.7% 15974 03-30-15
238 Paixii 1.6% 15978 03-30-15
239 BallzeH 1.5% 15995 03-30-15
240 Mankster101 1.5% 16000 03-30-15
241 BecauseWarAnvil 1.5% 16003 03-30-15
242 Jamixesa 1.5% 16004 03-30-15
243 Crydio 1.4% 16010 03-30-15
244 Shanekilz 1.4% 16013 03-30-15
245 SpiritDragon1995 1.4% 16014 03-30-15
246 ReuelBrony 1.4% 16022 03-30-15
247 stanski 1.3% 16028 03-30-15
248 MarewBFN 1.3% 16031 03-30-15
249 Sonique Hedgehog 1.3% 16036 03-30-15
250 p0ker 1.2% 16045 03-30-15
250 Blue Infamy 1.2% 16045 03-30-15
252 ErrortheCucco 1.2% 16055 03-30-15
253 Arthas 1.1% 16057 03-30-15
254 Rikum22 1.1% 16058 03-30-15
255 sonic1001 1.1% 16066 03-30-15
256 WingedInsignia 1.1% 16069 03-30-15
257 syco1098 1.1% 16073 03-30-15
258 AJSIV 1.0% 16075 03-30-15
259 Sonic the Hedgehod16 1.0% 16077 03-30-15
260 sonicfan9 1.0% 16080 03-30-15
261 Calfd 1.0% 16081 03-30-15
262 BlackArmsShadow 0.9% 16093 03-30-15
262 HHNNBBHHN 0.9% 16093 03-30-15
264 themachoman202 0.9% 16098 03-30-15
265 Ben1502 0.9% 16103 03-30-15
266 MastaToken 0.9% 16104 03-30-15
266 Greham Adelphis 0.9% 16104 03-30-15
268 shadowblast63 Player Banned 0.9% 16105 03-30-15
269 Fivavoa 0.8% 16106 03-30-15
270 Mr. Jones 0.8% 16108 03-30-15
271 darkstarblaze 0.8% 16109 03-30-15
271 ptorflaxendrosis 0.8% 16109 03-30-15
273 arcfx1985 0.8% 16110 03-30-15
274 Knuckles 0.8% 16113 03-30-15
274 Gvozdevik 0.8% 16113 03-30-15
276 FlandreScarlet9999vr 0.8% 16114 03-30-15
277 KaM Mark MaK 0.7% 16123 03-30-15
278 BeeAwwb 0.7% 16127 03-30-15
279 ShadouZaHejjihoggu 0.7% 16130 03-30-15
280 Sonic62 0.7% 16136 03-30-15
281 darkersupershadic 0.6% 16139 03-30-15
282 Sogeking 0.6% 16140 03-30-15
283 dragondragon18 0.6% 16143 03-30-15
283 Shadygamerfreak 0.6% 16143 03-30-15
285 SonicK100 0.6% 16144 03-30-15
285 Sarger001 0.6% 16144 03-30-15
287 Grady219 0.6% 16145 03-30-15
288 Jawaah 0.6% 16149 03-30-15
289 Antek 0.6% 16153 03-30-15
290 SilverK 0.6% 16154 03-30-15
291 Klaus 0.5% 16155 03-30-15
292 SpinDashMaster 0.5% 16159 03-30-15
293 BioShadow 0.5% 16160 03-30-15
294 Videogamer123 0.5% 16165 03-30-15
295 oTaiIilLsS 0.4% 16179 03-30-15
295 Egor305 0.4% 16179 03-30-15
297 Mad Andy 0.4% 16180 03-30-15
298 isaihtb11 0.4% 16181 03-30-15
299 OhNoes! 0.4% 16182 03-30-15
300 zaktu40 0.4% 16183 03-30-15
301 S-MS32X-S 0.4% 16185 03-30-15
302 gaara1234 0.4% 16186 03-30-15
303 gamed00d 0.3% 16187 03-30-15
304 Mister_Slick 0.3% 16197 03-30-15
305 Sonic06Fan 0.3% 16199 03-30-15
306 Rush Hero 0.3% 16200 03-30-15
307 SonicMega167 0.3% 16203 03-30-15
308 Iwannabelink 0.2% 16204 03-30-15
309 sonknuck23 0.2% 16209 03-30-15
310 gamer1245 0.2% 16214 03-30-15
310 DanielTheFalcon 0.2% 16214 03-30-15
312 Burningskull123 0.1% 16222 03-30-15
313 Sonicontherun 0.1% 16232 03-30-15
314 Lil_Dude 0.0% 16236 03-30-15
315 antiwwe 0.0% 16238 03-30-15
316 Genuine Hedgehog 0.0% 16242 03-30-15
316 Cbwade15 0.0% 16242 03-30-15
318 Tyrouble 0.0% 16245 03-30-15
319 MegabombBlade 0.0% 16252 03-30-15
319 Over 0.0% 16252 03-30-15
319 Tran Sonic Fan Player Banned 0.0% 16252 03-30-15
319 sdj6707 Player Banned 0.0% 16252 03-30-15
319 neji_hyuuga 0.0% 16252 03-30-15

This page is using the New Data Table System. [FUTURE]

Game ID: 3 | Category ID: 10
Hits: 62,885 | Hits This Month: 384 | DB Calls: 21 | Mem Usage: 5.45 MB | Time: 0.12s | Printable

The Sonic Center v3.9
Copyright 2003-2011 by The Sonic Center Team.